Time;durP1;ratioP1;P1;durP2;ratioP2;P2;SDS_P1;SDS_P2;PMS_P1;PMS_P2;Temp;Humidity;BMP_temperature;BMP_pressure;BME280_temperature;BME280_humidity;BME280_pressure;Samples;Min_cycle;Max_cycle;Signal;HPM_P1;HPM_P2
2023/07/06 00:00:53;;;;;;;3.22;1.88;;;18.90;83.70;;;;;;4978393;28;20372;-82
2023/07/06 00:03:19;;;;;;;3.63;1.95;;;18.80;83.70;;;;;;4978246;28;20031;-82
2023/07/06 00:05:45;;;;;;;3.95;2.25;;;18.80;83.70;;;;;;4954207;28;20114;-82
2023/07/06 00:08:14;;;;;;;4.53;2.17;;;18.90;83.70;;;;;;4950500;29;20066;-82
2023/07/06 00:10:41;;;;;;;4.13;2.42;;;18.80;83.70;;;;;;4955503;28;20019;-82
2023/07/06 00:13:07;;;;;;;5.90;2.50;;;18.90;83.80;;;;;;4977440;28;20122;-82
2023/07/06 00:15:34;;;;;;;3.72;2.00;;;18.80;83.70;;;;;;4960429;28;20062;-81
2023/07/06 00:18:03;;;;;;;3.03;2.00;;;18.80;83.80;;;;;;4959558;28;20070;-81
2023/07/06 00:20:31;;;;;;;4.22;2.40;;;18.80;83.70;;;;;;4977381;28;20027;-82
2023/07/06 00:22:56;;;;;;;4.65;2.25;;;18.80;83.70;;;;;;4977455;28;20034;-82
2023/07/06 00:25:22;;;;;;;3.53;2.10;;;18.80;83.80;;;;;;4959016;28;20027;-82
2023/07/06 00:27:48;;;;;;;3.88;1.83;;;18.80;83.80;;;;;;4955599;29;20031;-82
2023/07/06 00:30:30;;;;;;;3.92;2.20;;;18.80;83.80;;;;;;4958973;28;20015;-82
2023/07/06 00:32:58;;;;;;;4.63;2.45;;;18.90;83.90;;;;;;4976369;28;20364;-82
2023/07/06 00:35:24;;;;;;;3.97;2.30;;;18.80;83.80;;;;;;4958815;28;20034;-81
2023/07/06 00:37:51;;;;;;;4.35;2.20;;;18.80;83.70;;;;;;4975804;28;20483;-83
2023/07/06 00:40:17;;;;;;;4.25;2.40;;;18.80;83.70;;;;;;4958432;28;20455;-82
2023/07/06 00:42:43;;;;;;;3.85;2.05;;;18.80;83.70;;;;;;4972983;28;20035;-82
2023/07/06 00:45:10;;;;;;;3.55;2.10;;;18.90;83.80;;;;;;4943964;28;20034;-82
2023/07/06 00:47:40;;;;;;;3.85;2.00;;;18.90;83.80;;;;;;4957652;28;20074;-82
2023/07/06 00:50:17;;;;;;;3.55;1.92;;;18.90;83.70;;;;;;4956791;29;20031;-82
2023/07/06 00:52:58;;;;;;;3.95;2.03;;;18.90;83.60;;;;;;4938994;29;20389;-82
2023/07/06 00:55:28;;;;;;;4.30;2.42;;;18.90;83.60;;;;;;4938713;29;20023;-81
2023/07/06 00:58:07;;;;;;;4.22;2.25;;;19.00;83.60;;;;;;4955004;28;20027;-81
2023/07/06 01:00:33;;;;;;;3.72;2.03;;;18.90;83.50;;;;;;4961454;28;20027;-82
2023/07/06 01:03:01;;;;;;;3.97;2.00;;;19.00;83.50;;;;;;4961726;28;20022;-82
2023/07/06 01:05:28;;;;;;;3.35;2.00;;;19.00;83.50;;;;;;4960344;28;20038;-82
2023/07/06 01:07:56;;;;;;;5.00;2.20;;;19.00;83.50;;;;;;4952097;28;20035;-82
2023/07/06 01:10:23;;;;;;;3.85;2.10;;;19.00;83.50;;;;;;4961200;28;20034;-82
2023/07/06 01:12:49;;;;;;;3.55;1.83;;;18.90;83.50;;;;;;4978694;28;20019;-82
2023/07/06 01:15:16;;;;;;;3.58;2.00;;;18.90;83.50;;;;;;4952494;28;20079;-81
2023/07/06 01:18:00;;;;;;;4.05;2.30;;;18.90;83.60;;;;;;4959418;29;20444;-81
2023/07/06 01:20:35;;;;;;;4.60;2.20;;;18.90;83.60;;;;;;4957658;29;20031;-82
2023/07/06 01:23:22;;;;;;;3.65;2.17;;;18.90;83.80;;;;;;4941200;29;20027;-82
2023/07/06 01:26:22;;;;;;;3.55;1.95;;;18.90;83.90;;;;;;4951764;28;20054;-81
2023/07/06 01:29:29;;;;;;;4.28;2.17;;;18.90;84.00;;;;;;4957032;29;20082;-81
2023/07/06 01:31:59;;;;;;;4.28;2.50;;;18.80;84.00;;;;;;4956861;29;20027;-80
2023/07/06 01:34:41;;;;;;;3.55;2.10;;;18.80;83.90;;;;;;4940549;28;20027;-82
2023/07/06 01:37:22;;;;;;;3.70;2.13;;;18.80;83.90;;;;;;4956154;28;20038;-82
2023/07/06 01:39:48;;;;;;;4.18;2.25;;;18.80;83.90;;;;;;4959365;28;20031;-81
2023/07/06 01:42:31;;;;;;;3.80;2.10;;;18.80;83.90;;;;;;4957526;28;20115;-81
2023/07/06 01:45:23;;;;;;;3.88;2.08;;;18.80;83.90;;;;;;4959376;28;20070;-81
2023/07/06 01:47:53;;;;;;;3.88;2.30;;;18.80;83.90;;;;;;4959033;28;20035;-81
2023/07/06 01:50:24;;;;;;;4.43;2.33;;;18.70;83.90;;;;;;4977004;28;20023;-81
2023/07/06 01:53:03;;;;;;;3.72;2.30;;;18.80;83.90;;;;;;4959370;28;20042;-81
2023/07/06 01:55:46;;;;;;;4.03;2.38;;;18.80;83.90;;;;;;4959526;28;20126;-81
2023/07/06 01:58:33;;;;;;;4.05;2.28;;;18.80;84.00;;;;;;4962116;28;20051;-81
2023/07/06 02:01:13;;;;;;;3.40;2.10;;;18.80;83.90;;;;;;4939920;29;20031;-81
2023/07/06 02:03:41;;;;;;;4.70;2.70;;;18.80;83.90;;;;;;4952166;29;20415;-81
2023/07/06 02:06:08;;;;;;;3.80;2.30;;;18.80;83.90;;;;;;4939674;29;20056;-82
2023/07/06 02:08:33;;;;;;;4.28;2.35;;;18.80;83.90;;;;;;4958676;28;20035;-81
2023/07/06 02:11:01;;;;;;;5.55;2.42;;;18.80;83.90;;;;;;4956069;29;20023;-82
2023/07/06 02:13:26;;;;;;;4.50;2.40;;;18.80;83.80;;;;;;4959727;29;20110;-83
2023/07/06 02:15:52;;;;;;;4.72;2.38;;;18.80;83.80;;;;;;4960834;28;20716;-82
2023/07/06 02:18:17;;;;;;;5.50;3.00;;;18.80;83.80;;;;;;4959923;28;20484;-82
2023/07/06 02:20:47;;;;;;;4.95;2.30;;;18.80;83.70;;;;;;4963599;28;20035;-82
2023/07/06 02:23:12;;;;;;;3.25;2.13;;;18.80;83.80;;;;;;4980544;28;20387;-82
2023/07/06 02:25:39;;;;;;;4.97;2.40;;;18.90;83.90;;;;;;4963268;28;20031;-82
2023/07/06 02:28:08;;;;;;;3.83;2.30;;;18.80;83.80;;;;;;4962771;28;20027;-82
2023/07/06 02:30:34;;;;;;;4.07;2.30;;;18.90;83.80;;;;;;4962453;28;20439;-82
2023/07/06 02:32:59;;;;;;;3.53;2.30;;;18.90;83.70;;;;;;4962386;28;20019;-82
2023/07/06 02:35:25;;;;;;;4.78;2.50;;;18.90;83.70;;;;;;4952956;28;20090;-82
2023/07/06 02:37:51;;;;;;;4.35;2.38;;;18.90;83.70;;;;;;4962279;28;20037;-81
2023/07/06 02:40:17;;;;;;;4.63;2.60;;;18.90;83.60;;;;;;4959604;28;20034;-83
2023/07/06 02:42:42;;;;;;;4.25;2.50;;;18.90;83.70;;;;;;4975008;28;20023;-82
2023/07/06 02:45:09;;;;;;;4.85;2.63;;;18.90;83.60;;;;;;4961856;28;20471;-83
2023/07/06 02:47:36;;;;;;;4.50;2.95;;;18.90;83.70;;;;;;4961456;28;20054;-83
2023/07/06 02:50:02;;;;;;;4.85;2.70;;;18.80;83.60;;;;;;4961361;28;20038;-83
2023/07/06 02:52:28;;;;;;;5.18;2.75;;;18.90;83.60;;;;;;4961054;28;20031;-83
2023/07/06 02:54:53;;;;;;;4.53;2.67;;;18.80;83.70;;;;;;4955489;29;20041;-83
2023/07/06 02:57:20;;;;;;;4.15;2.63;;;18.80;83.70;;;;;;4953986;28;20026;-83
2023/07/06 02:59:45;;;;;;;5.53;3.25;;;18.80;83.80;;;;;;4960992;28;20046;-83
2023/07/06 03:02:12;;;;;;;5.13;3.00;;;18.80;84.00;;;;;;4963584;28;20027;-84
2023/07/06 03:04:38;;;;;;;4.82;2.90;;;18.80;84.10;;;;;;4962748;28;20027;-84
2023/07/06 03:07:04;;;;;;;4.90;3.10;;;18.80;84.10;;;;;;4962651;28;20031;-84
2023/07/06 03:09:29;;;;;;;6.22;3.10;;;18.80;84.10;;;;;;4980285;28;20054;-83
2023/07/06 03:11:55;;;;;;;4.93;3.05;;;18.80;84.10;;;;;;4962757;28;20027;-83
2023/07/06 03:14:22;;;;;;;5.10;3.13;;;18.80;84.00;;;;;;4962532;28;20035;-83
2023/07/06 03:16:48;;;;;;;5.10;3.00;;;18.80;84.00;;;;;;4979187;28;20097;-83
2023/07/06 03:19:14;;;;;;;6.07;3.58;;;18.80;84.00;;;;;;4961544;28;20085;-83
2023/07/06 03:21:39;;;;;;;5.30;3.53;;;18.80;84.00;;;;;;4961902;28;20023;-83
2023/07/06 03:24:06;;;;;;;4.72;2.90;;;18.70;84.00;;;;;;4961698;28;20026;-83
2023/07/06 03:26:34;;;;;;;6.00;3.85;;;18.80;84.10;;;;;;4960547;28;20035;-83
2023/07/06 03:29:00;;;;;;;6.00;3.78;;;18.70;84.00;;;;;;4961077;28;20023;-84
2023/07/06 03:31:29;;;;;;;5.32;3.38;;;18.70;84.00;;;;;;4961047;28;20055;-83
2023/07/06 03:33:55;;;;;;;5.82;3.65;;;18.70;84.00;;;;;;4960379;28;20456;-84
2023/07/06 03:36:21;;;;;;;4.72;3.00;;;18.80;84.10;;;;;;4977790;28;20162;-82
2023/07/06 03:38:49;;;;;;;5.93;3.65;;;18.80;84.00;;;;;;4941804;29;20023;-83
2023/07/06 03:41:16;;;;;;;6.00;3.60;;;18.80;84.00;;;;;;4941206;29;20074;-83
2023/07/06 03:43:42;;;;;;;5.75;3.75;;;18.80;84.50;;;;;;4972679;28;20018;-83
2023/07/06 03:46:08;;;;;;;6.68;3.88;;;18.70;84.00;;;;;;4956777;28;20027;-84
2023/07/06 03:48:33;;;;;;;5.93;4.03;;;18.80;84.00;;;;;;4945755;28;20023;-83
2023/07/06 03:51:07;;;;;;;6.72;4.15;;;18.70;83.90;;;;;;4959485;28;20027;-83
2023/07/06 03:53:35;;;;;;;6.18;3.97;;;18.70;83.90;;;;;;4976730;28;20022;-83
2023/07/06 03:56:01;;;;;;;5.63;3.53;;;18.80;83.80;;;;;;4958495;28;20026;-83
2023/07/06 03:58:28;;;;;;;6.05;3.85;;;18.80;83.90;;;;;;4940988;29;20030;-82
2023/07/06 04:00:56;;;;;;;6.18;4.03;;;18.80;83.80;;;;;;4957510;29;20464;-83
2023/07/06 04:03:21;;;;;;;6.43;3.85;;;18.80;83.90;;;;;;4939693;29;20074;-82
2023/07/06 04:05:47;;;;;;;6.50;4.72;;;18.80;83.90;;;;;;4939467;29;20027;-83
2023/07/06 04:08:16;;;;;;;6.85;4.20;;;18.80;83.70;;;;;;4956699;28;20113;-83
2023/07/06 04:10:42;;;;;;;5.93;3.90;;;18.80;83.60;;;;;;4956659;29;20015;-83
2023/07/06 04:13:09;;;;;;;6.25;4.68;;;18.90;83.60;;;;;;4955002;29;20023;-83
2023/07/06 04:15:38;;;;;;;6.13;4.32;;;18.90;83.60;;;;;;4956559;28;20528;-82
2023/07/06 04:18:05;;;;;;;7.25;4.20;;;18.90;83.60;;;;;;4952026;29;20126;-84
2023/07/06 04:20:31;;;;;;;6.80;4.70;;;18.90;83.60;;;;;;4955073;29;20535;-83
2023/07/06 04:22:58;;;;;;;6.53;4.45;;;18.90;83.60;;;;;;4954602;29;20484;-83
2023/07/06 04:25:31;;;;;;;7.40;5.30;;;18.90;83.60;;;;;;4956186;28;20042;-83
2023/07/06 04:27:59;;;;;;;6.47;4.38;;;18.80;83.50;;;;;;4964723;28;20027;-83
2023/07/06 04:30:25;;;;;;;6.53;4.72;;;18.80;83.60;;;;;;4937717;29;20023;-83
2023/07/06 04:32:51;;;;;;;6.72;4.40;;;18.80;83.60;;;;;;4938500;29;20023;-83
2023/07/06 04:35:21;;;;;;;7.10;4.70;;;18.80;83.70;;;;;;4938160;29;20059;-82
2023/07/06 04:37:48;;;;;;;7.95;4.70;;;18.80;83.70;;;;;;4957234;28;20030;-83
2023/07/06 04:40:18;;;;;;;7.25;4.50;;;18.80;83.90;;;;;;4956124;28;20035;-83
2023/07/06 04:42:48;;;;;;;7.45;5.13;;;18.80;83.90;;;;;;4950383;29;20027;-82
2023/07/06 04:45:15;;;;;;;6.97;4.72;;;18.80;83.80;;;;;;4974037;28;20038;-82
2023/07/06 04:47:42;;;;;;;7.55;5.25;;;18.80;83.90;;;;;;4964757;28;20070;-83
2023/07/06 04:50:10;;;;;;;6.60;4.65;;;18.80;83.80;;;;;;4955561;28;20027;-83
2023/07/06 04:52:38;;;;;;;6.75;4.60;;;18.80;83.90;;;;;;4956694;28;20023;-82
2023/07/06 04:55:05;;;;;;;7.03;4.75;;;18.80;84.00;;;;;;4974452;28;20484;-83
2023/07/06 04:57:31;;;;;;;6.75;4.68;;;18.70;83.90;;;;;;4956231;28;20037;-83
2023/07/06 04:59:56;;;;;;;6.93;4.85;;;18.80;83.90;;;;;;4956724;28;20419;-84
2023/07/06 05:02:22;;;;;;;7.38;4.82;;;18.80;83.90;;;;;;4956933;28;20564;-82
2023/07/06 05:04:49;;;;;;;7.70;4.90;;;18.70;83.90;;;;;;4967481;28;20034;-82
2023/07/06 05:07:15;;;;;;;6.43;4.50;;;18.80;83.90;;;;;;4948408;29;20068;-84
2023/07/06 05:09:41;;;;;;;7.60;4.80;;;18.80;84.10;;;;;;4967766;28;20054;-84
2023/07/06 05:12:08;;;;;;;6.90;4.57;;;18.80;84.10;;;;;;4945979;28;20038;-82
2023/07/06 05:14:34;;;;;;;7.05;4.60;;;18.70;84.10;;;;;;4956292;28;20034;-82
2023/07/06 05:17:00;;;;;;;6.18;4.45;;;18.70;83.90;;;;;;4957909;28;20030;-80
2023/07/06 05:19:27;;;;;;;6.60;4.75;;;18.80;84.00;;;;;;4962410;28;20027;-81
2023/07/06 05:21:55;;;;;;;6.60;4.80;;;18.90;84.10;;;;;;4958667;28;20057;-81
2023/07/06 05:24:21;;;;;;;6.78;4.50;;;18.70;83.80;;;;;;4959129;28;20054;-80
2023/07/06 05:26:46;;;;;;;6.82;4.78;;;18.70;83.90;;;;;;4969841;28;20027;-79
2023/07/06 05:29:12;;;;;;;6.75;4.53;;;18.80;83.90;;;;;;4966527;28;20034;-81
2023/07/06 05:31:37;;;;;;;7.28;4.40;;;18.90;84.00;;;;;;4946477;28;20027;-82
2023/07/06 05:34:04;;;;;;;6.25;4.32;;;19.50;84.20;;;;;;4961302;28;20026;-84
2023/07/06 05:39:36;;;;;;;6.15;4.40;;;18.80;83.60;;;;;;4996683;23;20046;-79
2023/07/06 05:42:01;;;;;;;6.18;4.07;;;18.80;83.50;;;;;;4986687;28;20125;-80
2023/07/06 05:44:27;;;;;;;6.40;4.13;;;18.80;83.40;;;;;;4985500;28;20420;-81
2023/07/06 05:46:52;;;;;;;5.85;4.05;;;18.90;83.40;;;;;;4978382;28;20030;-80
2023/07/06 05:49:18;;;;;;;5.93;3.97;;;18.90;83.40;;;;;;4975173;28;20050;-80
2023/07/06 05:51:43;;;;;;;6.30;4.40;;;18.90;83.30;;;;;;4961459;28;20459;-80
2023/07/06 05:54:09;;;;;;;6.63;3.75;;;18.90;83.20;;;;;;4976267;28;20098;-79
2023/07/06 05:56:36;;;;;;;6.10;3.80;;;18.90;83.10;;;;;;4963416;28;20041;-80
2023/07/06 05:59:01;;;;;;;7.57;4.03;;;18.90;83.10;;;;;;4976055;28;20106;-80
2023/07/06 06:01:29;;;;;;;6.10;3.83;;;18.90;83.00;;;;;;4971616;28;20054;-80
2023/07/06 06:03:55;;;;;;;6.90;4.05;;;18.90;83.10;;;;;;4957125;28;20026;-84
2023/07/06 06:10:59;;;;;;;;;;;;;;;;;;;;;
2023/07/06 06:16:51;;;;;;;6.63;3.67;;;18.90;83.10;;;;;;4874806;29;20097;-83
2023/07/06 06:27:10;;;;;;;;;;;;;;;;;;;;;
2023/07/06 06:36:42;;;;;;;6.40;4.10;;;18.90;83.10;;;;;;4913850;29;20031;-81
2023/07/06 07:35:03;;;;;;;7.40;3.53;;;19.00;80.30;;;;;;5114941;27;1235001;-79
2023/07/06 07:37:28;;;;;;;9.32;3.65;;;19.20;80.10;;;;;;5118380;28;20032;-80
2023/07/06 07:39:55;;;;;;;8.32;3.55;;;19.20;80.10;;;;;;5097044;28;20027;-80
2023/07/06 07:42:21;;;;;;;10.23;3.90;;;19.20;79.90;;;;;;5117788;28;20024;-79
2023/07/06 07:44:47;;;;;;;8.15;3.63;;;19.30;80.10;;;;;;5111375;28;20028;-80
2023/07/06 07:47:15;;;;;;;6.85;3.30;;;19.20;80.10;;;;;;5103641;28;20028;-80
2023/07/06 07:49:41;;;;;;;7.05;3.45;;;19.40;80.10;;;;;;5110497;28;20480;-79
2023/07/06 07:52:09;;;;;;;7.93;3.13;;;19.30;80.00;;;;;;5118677;28;20114;-80
2023/07/06 07:54:34;;;;;;;9.35;3.30;;;19.30;79.90;;;;;;5113133;28;20138;-82
2023/07/06 07:57:00;;;;;;;8.23;3.22;;;19.30;80.10;;;;;;5100826;28;20508;-79
2023/07/06 07:59:26;;;;;;;9.25;3.25;;;19.30;80.20;;;;;;5125411;28;20019;-80
2023/07/06 08:01:52;;;;;;;7.97;3.20;;;19.30;80.30;;;;;;5113178;28;20073;-80
2023/07/06 08:04:20;;;;;;;8.27;3.30;;;19.20;80.30;;;;;;5130355;28;20058;-79
2023/07/06 08:06:45;;;;;;;5.85;3.05;;;19.20;80.30;;;;;;5111029;27;20122;-79
2023/07/06 08:09:10;;;;;;;7.90;2.97;;;19.20;80.40;;;;;;5093021;28;20044;-79
2023/07/06 08:11:38;;;;;;;7.60;3.20;;;19.20;80.50;;;;;;5109910;28;20023;-80
2023/07/06 08:14:08;;;;;;;7.15;3.40;;;19.20;80.90;;;;;;5110758;28;20377;-81
2023/07/06 08:16:34;;;;;;;7.93;3.05;;;19.10;80.30;;;;;;5123377;27;20027;-81
2023/07/06 08:19:03;;;;;;;11.68;2.92;;;19.10;80.40;;;;;;5114459;28;20545;-80
2023/07/06 08:21:29;;;;;;;10.60;2.80;;;19.00;80.50;;;;;;5106999;28;20056;-80
2023/07/06 08:23:57;;;;;;;7.45;3.10;;;19.00;80.50;;;;;;5104209;28;20486;-82
2023/07/06 08:26:23;;;;;;;9.40;3.17;;;19.00;80.60;;;;;;5108648;28;20027;-80
2023/07/06 08:28:49;;;;;;;8.73;3.03;;;19.00;80.50;;;;;;5109916;28;20023;-83
2023/07/06 08:31:18;;;;;;;7.32;3.22;;;19.00;80.50;;;;;;5110997;28;20076;-82
2023/07/06 08:33:43;;;;;;;8.82;2.80;;;19.00;80.70;;;;;;5110098;28;20579;-81
2023/07/06 08:36:09;;;;;;;8.23;3.28;;;19.10;80.50;;;;;;5091838;28;20039;-83
2023/07/06 08:38:38;;;;;;;9.30;2.90;;;19.10;80.20;;;;;;5101921;28;20650;-81
2023/07/06 08:41:14;;;;;;;9.57;3.53;;;19.00;79.20;;;;;;5095922;28;20047;-83
2023/07/06 08:43:41;;;;;;;9.52;3.40;;;19.00;79.40;;;;;;5076329;28;20027;-84
2023/07/06 08:46:11;;;;;;;8.85;3.38;;;19.00;79.00;;;;;;5089589;28;20028;-81
2023/07/06 08:48:37;;;;;;;14.80;3.88;;;19.10;79.00;;;;;;5076261;28;20101;-82
2023/07/06 08:51:09;;;;;;;10.43;3.30;;;19.00;79.10;;;;;;5076499;28;20446;-83
2023/07/06 08:53:35;;;;;;;12.60;3.30;;;19.00;79.30;;;;;;5094311;28;20028;-81
2023/07/06 08:56:04;;;;;;;8.57;3.13;;;19.00;79.50;;;;;;5114590;28;20020;-81
2023/07/06 08:58:38;;;;;;;11.52;3.72;;;19.00;79.70;;;;;;5103995;28;20030;-83
2023/07/06 09:01:15;;;;;;;10.80;3.03;;;18.90;79.80;;;;;;5075687;28;20031;-82
2023/07/06 09:03:49;;;;;;;11.60;3.33;;;19.00;79.90;;;;;;5076877;28;20031;-80
2023/07/06 09:06:20;;;;;;;12.05;3.10;;;19.00;80.10;;;;;;5080792;28;20020;-81
2023/07/06 09:08:50;;;;;;;9.88;2.97;;;19.10;79.90;;;;;;5096553;28;20062;-81
2023/07/06 09:11:17;;;;;;;11.15;2.92;;;19.10;79.50;;;;;;5094885;28;20020;-81
2023/07/06 09:13:49;;;;;;;12.27;3.05;;;19.20;79.20;;;;;;5080702;28;20507;-81
2023/07/06 09:16:18;;;;;;;8.38;2.97;;;19.20;79.10;;;;;;5113864;28;20501;-81
2023/07/06 09:18:43;;;;;;;9.35;2.70;;;19.20;79.00;;;;;;5092946;28;20027;-81
2023/07/06 09:21:09;;;;;;;13.45;3.25;;;19.20;78.90;;;;;;5081608;28;20024;-81
2023/07/06 09:23:35;;;;;;;11.48;3.03;;;19.20;79.00;;;;;;5091836;28;20031;-80
2023/07/06 09:26:06;;;;;;;9.00;2.72;;;19.10;79.10;;;;;;5092333;28;20042;-78
2023/07/06 09:28:32;;;;;;;10.48;2.78;;;19.20;79.30;;;;;;5079731;28;20046;-78
2023/07/06 09:31:18;;;;;;;8.23;2.70;;;19.20;79.50;;;;;;5097092;28;20552;-78
2023/07/06 09:33:48;;;;;;;12.52;3.05;;;19.20;79.60;;;;;;5079366;28;20063;-79
2023/07/06 09:36:22;;;;;;;9.15;2.85;;;19.10;79.70;;;;;;5101731;28;20016;-78
2023/07/06 09:38:47;;;;;;;10.93;3.08;;;19.10;79.90;;;;;;5097869;28;20050;-79
2023/07/06 09:41:19;;;;;;;8.13;2.60;;;19.10;80.10;;;;;;5115685;28;20031;-78
2023/07/06 09:43:46;;;;;;;9.98;2.80;;;19.10;80.30;;;;;;5099499;28;20024;-79
2023/07/06 09:46:11;;;;;;;9.68;3.00;;;19.10;80.30;;;;;;5098958;28;20024;-78
2023/07/06 09:51:36;;;;;;;7.72;2.65;;;19.10;80.20;;;;;;5018462;28;20050;-79
2023/07/06 09:54:12;;;;;;;8.68;2.70;;;19.10;80.50;;;;;;5000322;28;20057;-79
2023/07/06 09:56:38;;;;;;;7.10;3.20;;;19.10;80.20;;;;;;5000234;28;20022;-79
2023/07/06 09:59:04;;;;;;;8.27;2.70;;;19.10;80.50;;;;;;5000182;28;20115;-79
2023/07/06 10:01:43;;;;;;;7.28;2.72;;;19.10;80.40;;;;;;4993251;28;20125;-78
2023/07/06 10:04:36;;;;;;;7.07;2.47;;;19.20;80.10;;;;;;4999604;28;20057;-79
2023/07/06 10:07:15;;;;;;;7.80;2.55;;;19.20;79.60;;;;;;4979802;28;20034;-79
2023/07/06 10:09:52;;;;;;;8.40;2.35;;;19.30;78.90;;;;;;5008117;28;20113;-78
2023/07/06 10:12:28;;;;;;;6.95;2.55;;;19.30;78.00;;;;;;5016065;28;20026;-77
2023/07/06 10:14:54;;;;;;;6.78;2.22;;;19.30;77.50;;;;;;5034769;28;20021;-79
2023/07/06 10:17:37;;;;;;;7.85;2.55;;;19.30;76.90;;;;;;4996991;28;20034;-79
2023/07/06 10:20:12;;;;;;;8.43;2.53;;;19.40;76.70;;;;;;5005962;28;20025;-78
2023/07/06 10:23:04;;;;;;;9.85;2.85;;;19.40;76.00;;;;;;5015536;28;20549;-78
2023/07/06 10:25:57;;;;;;;6.70;2.33;;;19.40;76.20;;;;;;4999502;28;20022;-79
2023/07/06 10:28:28;;;;;;;7.50;2.42;;;19.30;75.50;;;;;;4999827;28;20033;-79
2023/07/06 10:30:57;;;;;;;7.75;2.50;;;19.40;75.70;;;;;;5017002;28;20013;-79
2023/07/06 10:33:32;;;;;;;7.10;2.42;;;19.30;75.70;;;;;;4999408;28;20037;-79
2023/07/06 10:35:59;;;;;;;8.07;2.45;;;19.40;75.90;;;;;;5011333;28;20591;-79
2023/07/06 10:38:25;;;;;;;9.07;2.60;;;19.30;76.40;;;;;;5000679;28;20041;-79
2023/07/06 10:41:11;;;;;;;7.50;2.70;;;19.30;76.40;;;;;;4999553;28;20044;-80
2023/07/06 10:43:41;;;;;;;6.28;2.40;;;19.30;77.10;;;;;;4995634;28;20038;-82
2023/07/06 10:46:26;;;;;;;5.95;2.28;;;19.30;76.70;;;;;;5029059;28;20108;-82
2023/07/06 10:48:59;;;;;;;5.50;2.38;;;19.40;76.80;;;;;;5005654;28;20071;-83
2023/07/06 10:51:27;;;;;;;5.40;2.05;;;19.40;76.90;;;;;;5014697;28;20590;-81
2023/07/06 10:54:28;;;;;;;6.38;2.03;;;19.40;76.70;;;;;;5001501;28;20037;-81
2023/07/06 10:57:00;;;;;;;9.63;2.40;;;19.50;76.70;;;;;;5000503;28;20040;-81
2023/07/06 10:59:39;;;;;;;7.07;2.50;;;19.40;76.30;;;;;;5002114;28;20517;-82
2023/07/06 11:02:16;;;;;;;5.20;2.20;;;19.50;76.50;;;;;;5006135;28;20028;-81
2023/07/06 11:04:52;;;;;;;8.05;2.45;;;19.50;76.10;;;;;;4981655;28;20044;-82
2023/07/06 11:07:39;;;;;;;7.30;2.10;;;19.50;76.50;;;;;;4993907;28;20026;-81
2023/07/06 11:10:12;;;;;;;18.02;3.05;;;19.50;76.80;;;;;;5012961;28;20091;-81
2023/07/06 11:12:58;;;;;;;20.67;3.22;;;19.40;76.80;;;;;;5002998;28;20022;-82
2023/07/06 11:15:41;;;;;;;21.60;2.85;;;19.40;76.50;;;;;;5033011;28;20036;-81
2023/07/06 11:18:29;;;;;;;35.67;4.32;;;19.30;76.80;;;;;;5034223;28;20497;-81
2023/07/06 11:21:11;;;;;;;34.60;4.53;;;19.30;77.30;;;;;;4978815;28;20030;-81
2023/07/06 11:23:53;;;;;;;29.08;4.35;;;19.20;77.50;;;;;;4977474;28;20080;-80
2023/07/06 11:26:47;;;;;;;39.10;4.13;;;19.20;78.20;;;;;;5031745;28;20021;-80
2023/07/06 11:29:13;;;;;;;48.13;5.45;;;19.20;78.40;;;;;;5004376;28;20057;-80
2023/07/06 11:31:48;;;;;;;36.60;5.30;;;19.10;78.50;;;;;;4996753;28;20065;-81
2023/07/06 11:34:39;;;;;;;39.70;5.22;;;19.10;78.20;;;;;;5014330;28;20026;-80
2023/07/06 11:37:26;;;;;;;29.23;3.92;;;19.20;78.00;;;;;;4998502;28;20080;-80
2023/07/06 11:40:19;;;;;;;35.67;4.32;;;19.20;77.70;;;;;;5014433;28;20034;-81
2023/07/06 11:43:08;;;;;;;25.35;3.90;;;19.30;77.70;;;;;;5008909;28;20400;-82
2023/07/06 11:45:59;;;;;;;26.67;4.07;;;19.20;77.50;;;;;;5014709;28;20024;-80
2023/07/06 11:48:45;;;;;;;21.40;3.35;;;19.30;77.40;;;;;;4981345;28;20030;-80
2023/07/06 11:51:10;;;;;;;21.27;3.28;;;19.30;76.70;;;;;;5013111;28;20045;-80
2023/07/06 11:53:54;;;;;;;24.33;3.53;;;19.30;76.30;;;;;;5014823;28;20038;-80
2023/07/06 11:56:50;;;;;;;21.42;3.47;;;19.30;76.10;;;;;;4996513;28;20100;-81
2023/07/06 11:59:36;;;;;;;26.77;3.63;;;19.30;76.10;;;;;;4995683;28;20108;-80
2023/07/06 12:02:10;;;;;;;22.02;3.33;;;19.30;76.40;;;;;;5014854;28;20034;-80
2023/07/06 12:04:39;;;;;;;14.32;3.45;;;19.30;76.30;;;;;;5015697;28;20081;-80
2023/07/06 12:07:32;;;;;;;15.55;2.88;;;19.20;76.30;;;;;;4998076;28;20102;-80
2023/07/06 12:10:06;;;;;;;19.27;3.47;;;19.30;76.20;;;;;;4994646;28;20033;-80
2023/07/06 12:12:33;;;;;;;15.35;3.22;;;19.30;77.30;;;;;;5013631;28;20032;-80
2023/07/06 12:15:01;;;;;;;21.58;3.65;;;19.30;77.50;;;;;;5013835;28;20019;-80
2023/07/06 12:17:30;;;;;;;12.55;2.90;;;19.30;77.40;;;;;;4980810;28;20026;-80
2023/07/06 12:19:57;;;;;;;14.70;2.75;;;19.30;76.70;;;;;;4993924;28;20029;-80
2023/07/06 12:22:23;;;;;;;16.05;3.38;;;19.30;76.70;;;;;;5007846;28;20602;-80
2023/07/06 12:24:51;;;;;;;15.07;2.92;;;19.30;76.00;;;;;;5016795;28;20022;-80
2023/07/06 12:27:18;;;;;;;15.63;3.38;;;19.30;76.00;;;;;;4994518;28;20484;-80
2023/07/06 12:29:46;;;;;;;12.93;2.80;;;19.30;75.90;;;;;;4998360;28;20030;-80
2023/07/06 12:32:21;;;;;;;18.05;2.95;;;19.30;75.90;;;;;;4998566;28;20084;-80
2023/07/06 12:34:52;;;;;;;18.88;3.50;;;19.30;75.80;;;;;;4997785;28;20105;-80
2023/07/06 12:37:20;;;;;;;16.45;3.08;;;19.30;76.10;;;;;;4979691;28;20022;-80
2023/07/06 12:39:48;;;;;;;13.77;2.97;;;19.30;76.60;;;;;;4992615;28;20483;-81
2023/07/06 12:42:19;;;;;;;16.90;3.28;;;19.30;76.50;;;;;;4998229;28;20038;-79
2023/07/06 12:44:47;;;;;;;12.07;3.03;;;19.30;76.40;;;;;;5016108;28;20096;-79
2023/07/06 12:47:32;;;;;;;11.93;3.20;;;19.30;76.70;;;;;;5001502;28;20117;-78
2023/07/06 12:50:00;;;;;;;10.70;2.92;;;19.30;76.20;;;;;;5011896;28;20029;-79
2023/07/06 12:52:28;;;;;;;11.65;2.65;;;19.20;76.50;;;;;;5033531;28;20399;-80
2023/07/06 12:54:55;;;;;;;13.68;2.55;;;19.20;76.90;;;;;;5014280;28;20112;-79
2023/07/06 12:57:29;;;;;;;12.07;2.50;;;19.20;76.80;;;;;;5039395;28;20033;-79
2023/07/06 12:59:58;;;;;;;10.23;2.47;;;19.20;76.70;;;;;;5034912;28;20028;-79
2023/07/06 13:02:29;;;;;;;9.10;2.45;;;19.20;76.90;;;;;;5024878;28;20018;-79
2023/07/06 13:04:55;;;;;;;;;;;19.10;76.80;;;;;;5032615;28;20022;-79
2023/07/06 13:07:28;;;;;;;9.13;2.20;;;19.10;76.60;;;;;;5034805;28;20390;-79
2023/07/06 13:09:54;;;;;;;10.00;2.35;;;19.10;76.50;;;;;;5019546;28;20026;-79
2023/07/06 13:12:22;;;;;;;5.70;2.10;;;19.10;76.10;;;;;;5022828;28;20060;-79
2023/07/06 13:14:50;;;;;;;9.85;2.58;;;19.10;76.40;;;;;;5033634;28;20549;-78
2023/07/06 13:17:22;;;;;;;6.55;2.10;;;19.10;76.30;;;;;;5034606;28;20390;-78
2023/07/06 13:19:48;;;;;;;5.05;2.00;;;19.10;76.30;;;;;;5032616;28;20064;-79
2023/07/06 13:22:13;;;;;;;6.60;2.08;;;19.00;76.40;;;;;;5026156;28;20499;-79
2023/07/06 13:24:40;;;;;;;6.97;2.10;;;19.10;76.70;;;;;;5013523;28;20125;-79
2023/07/06 13:27:33;;;;;;;6.45;2.17;;;19.10;76.40;;;;;;5013568;28;20396;-78
2023/07/06 13:29:58;;;;;;;4.82;1.90;;;19.10;76.40;;;;;;5027707;28;20029;-80
2023/07/06 13:32:24;;;;;;;7.85;2.30;;;19.00;76.50;;;;;;5038203;28;20368;-80
2023/07/06 13:34:50;;;;;;;6.10;2.55;;;19.00;76.50;;;;;;5055527;28;20034;-80
2023/07/06 13:37:29;;;;;;;6.35;2.28;;;19.00;76.40;;;;;;5055456;28;20029;-80
2023/07/06 13:39:59;;;;;;;6.95;2.20;;;19.00;76.40;;;;;;5038478;28;20498;-79
2023/07/06 13:42:26;;;;;;;8.13;2.30;;;19.00;76.30;;;;;;5038827;28;20033;-82
2023/07/06 13:44:52;;;;;;;6.60;2.50;;;19.00;76.20;;;;;;5036255;28;20737;-81
2023/07/06 13:47:18;;;;;;;4.97;2.20;;;18.90;76.20;;;;;;5039493;28;20025;-81
2023/07/06 13:49:44;;;;;;;8.52;2.30;;;19.00;76.10;;;;;;5038884;28;20036;-81
2023/07/06 13:52:11;;;;;;;7.28;2.47;;;19.00;76.00;;;;;;5036906;28;20091;-81
2023/07/06 13:54:37;;;;;;;8.10;2.58;;;19.10;75.80;;;;;;5039582;28;20052;-83
2023/07/06 13:57:04;;;;;;;7.90;2.67;;;19.00;75.90;;;;;;5038922;28;20025;-81
2023/07/06 13:59:31;;;;;;;4.88;2.80;;;19.00;76.00;;;;;;5040111;28;20099;-82
2023/07/06 14:02:02;;;;;;;9.32;2.55;;;19.00;75.90;;;;;;5038565;28;20025;-82
2023/07/06 14:04:29;;;;;;;;;;;19.10;75.50;;;;;;5038024;28;20467;-82
2023/07/06 14:06:55;;;;;;;9.38;2.47;;;19.10;75.40;;;;;;5039134;28;19912;-82
2023/07/06 14:09:21;;;;;;;5.45;2.60;;;19.10;75.90;;;;;;5054319;28;20124;-81
2023/07/06 14:11:47;;;;;;;6.72;2.50;;;19.00;75.50;;;;;;5031683;28;20517;-80
2023/07/06 14:14:13;;;;;;;6.85;2.60;;;19.10;75.00;;;;;;5034441;28;20026;-80
2023/07/06 14:16:38;;;;;;;6.57;2.80;;;19.00;74.70;;;;;;5036934;28;20373;-80
2023/07/06 14:19:05;;;;;;;6.72;2.60;;;19.00;74.70;;;;;;5033647;28;20116;-80
2023/07/06 14:21:33;;;;;;;5.93;2.80;;;19.10;75.00;;;;;;5037221;28;20053;-80
2023/07/06 14:23:58;;;;;;;6.43;2.65;;;19.00;75.00;;;;;;5036604;28;20021;-80
2023/07/06 14:26:25;;;;;;;6.97;3.15;;;19.00;75.40;;;;;;5018814;28;20018;-80
2023/07/06 14:28:51;;;;;;;6.03;2.90;;;19.00;75.50;;;;;;5052021;28;20095;-78